Santa Catarina, Texas
Current Conditions -  °F | °C
As of 4:55 PM on Saturday 25 Oct 2014 (Local Time) from KEBG Reporting Station
Clear Clear  
Wind Chill: 87°   Ceiling: Unl
Heat Index: 87°   Visibility: 10mi
Dew Point: 59°   Wind: 6mph
Humidity: 39%   Direction: 70°ENE
Pressure: 30.07"   Gusts: NA
Location:  26.5735°N, 98.695°W
Report Text: KEBG 252155Z AUTO 07005KT 10SM CLR 31/15 A3007 RMK AO2 T03080152
Loading
Personal Weather Stations






























Interactive Weather Map
Tropical Storm Tracking
New forecast layout! Learn more

10-Day Weather Forecast

Advertisements
Track Severe Weather on mobile